OCN23F EDDF-LEIB
Flight info
| Callsign | OCN23F |
|---|---|
| Flight time | 2h 4m |
| Altitude | 35000 |
| Route | ANEKI3F/25C ANEKI Y163 HERBI Y164 MOPAN DCT LUTIX DCT BENOT DCT NEMOS DCT GEVEA/N0444F370 DCT INCUS DCT BALSI DCT RETNO DCT TUPOX DCT MTG DCT DIVKO DCT VATIR DCT PIVUS DCT SULID DCT DIMIB DCT POS |
| Aircraft | A320/M-SDE3FGHIRWY/LB1 |
Departure
| Time | 2026-05-04 07:52 |
|---|---|
| Airport | Frankfurt Main Airport (EDDF) |
Arrival
| Time | 2026-05-04 09:56 |
|---|---|
| Airport | Ibiza Airport (LEIB) |
| Time | Latitude | Longitude | Altitude | Speed | Heading |
|---|---|---|---|---|---|
| 2026-05-04 07:01 | 50.04920 | 8.59186 | 365 ft | 0 kts | 340° |
| 2026-05-04 07:40 | 50.04908 | 8.59193 | 365 ft | 4 kts | 340° |
| 2026-05-04 07:40 | 50.04883 | 8.59207 | 368 ft | 4 kts | 340° |
| 2026-05-04 07:40 | 50.04857 | 8.59222 | 370 ft | 4 kts | 340° |
| 2026-05-04 07:40 | 50.04844 | 8.59229 | 368 ft | 0 kts | 340° |
| 2026-05-04 07:43 | 50.04848 | 8.59235 | 371 ft | 2 kts | 37° |
| 2026-05-04 07:43 | 50.04855 | 8.59328 | 369 ft | 12 kts | 76° |
| 2026-05-04 07:44 | 50.04836 | 8.59495 | 371 ft | 22 kts | 129° |
| 2026-05-04 07:44 | 50.04670 | 8.59613 | 374 ft | 31 kts | 172° |
| 2026-05-04 07:44 | 50.04456 | 8.59626 | 376 ft | 31 kts | 178° |
| 2026-05-04 07:44 | 50.04241 | 8.59637 | 375 ft | 31 kts | 180° |
| 2026-05-04 07:45 | 50.04036 | 8.59544 | 374 ft | 31 kts | 204° |
| 2026-05-04 07:45 | 50.03882 | 8.59312 | 368 ft | 32 kts | 242° |
| 2026-05-04 07:45 | 50.03799 | 8.58991 | 367 ft | 32 kts | 249° |
| 2026-05-04 07:45 | 50.03721 | 8.58661 | 366 ft | 32 kts | 250° |
| 2026-05-04 07:46 | 50.03644 | 8.58334 | 363 ft | 32 kts | 250° |
| 2026-05-04 07:46 | 50.03569 | 8.58020 | 361 ft | 31 kts | 249° |
| 2026-05-04 07:46 | 50.03494 | 8.57706 | 357 ft | 31 kts | 250° |
| 2026-05-04 07:46 | 50.03419 | 8.57388 | 361 ft | 31 kts | 249° |
| 2026-05-04 07:47 | 50.03343 | 8.57073 | 358 ft | 31 kts | 250° |
| 2026-05-04 07:47 | 50.03269 | 8.56761 | 352 ft | 31 kts | 250° |
| 2026-05-04 07:47 | 50.03192 | 8.56442 | 348 ft | 31 kts | 250° |
| 2026-05-04 07:49 | 50.02676 | 8.54262 | 338 ft | 30 kts | 253° |
| 2026-05-04 07:49 | 50.02609 | 8.53953 | 334 ft | 31 kts | 249° |
| 2026-05-04 07:49 | 50.02533 | 8.53641 | 335 ft | 30 kts | 249° |
| 2026-05-04 07:50 | 50.02463 | 8.53348 | 335 ft | 29 kts | 250° |
| 2026-05-04 07:50 | 50.02395 | 8.53063 | 331 ft | 24 kts | 249° |
| 2026-05-04 07:50 | 50.02348 | 8.52864 | 333 ft | 17 kts | 249° |
| 2026-05-04 07:50 | 50.02307 | 8.52699 | 334 ft | 14 kts | 251° |
| 2026-05-04 07:51 | 50.02285 | 8.52603 | 332 ft | 6 kts | 189° |
| 2026-05-04 07:51 | 50.02229 | 8.52605 | 335 ft | 15 kts | 180° |
| 2026-05-04 07:51 | 50.01873 | 8.52609 | 334 ft | 87 kts | 179° |
| 2026-05-04 07:51 | 50.01062 | 8.52616 | 330 ft | 144 kts | 180° |
| 2026-05-04 07:52 | 49.99966 | 8.52633 | 713 ft | 159 kts | 180° |
| 2026-05-04 07:52 | 49.98859 | 8.52681 | 1432 ft | 159 kts | 180° |
| 2026-05-04 07:52 | 49.97681 | 8.52758 | 1806 ft | 181 kts | 179° |
| 2026-05-04 07:52 | 49.96356 | 8.52860 | 2115 ft | 201 kts | 179° |
| 2026-05-04 07:53 | 49.94880 | 8.52977 | 2387 ft | 226 kts | 179° |
| 2026-05-04 07:54 | 49.83594 | 8.53784 | 7895 ft | 241 kts | 180° |
| 2026-05-04 07:55 | 49.81911 | 8.53896 | 8667 ft | 243 kts | 180° |
| 2026-05-04 07:55 | 49.80207 | 8.54010 | 9471 ft | 245 kts | 180° |
| 2026-05-04 07:55 | 49.78498 | 8.54123 | 10236 ft | 247 kts | 182° |
| 2026-05-04 07:55 | 49.76753 | 8.53979 | 10711 ft | 261 kts | 187° |
| 2026-05-04 07:56 | 49.75517 | 8.53815 | 10869 ft | 277 kts | 187° |
| 2026-05-04 07:56 | 49.72805 | 8.53439 | 11130 ft | 308 kts | 187° |
| 2026-05-04 07:56 | 49.70606 | 8.53137 | 11498 ft | 323 kts | 187° |
| 2026-05-04 07:56 | 49.68353 | 8.52836 | 12147 ft | 328 kts | 187° |
| 2026-05-04 07:57 | 49.66063 | 8.52535 | 12863 ft | 332 kts | 187° |
| 2026-05-04 07:57 | 49.63757 | 8.52231 | 13554 ft | 335 kts | 187° |
| 2026-05-04 07:57 | 49.61420 | 8.51922 | 14189 ft | 338 kts | 187° |
| 2026-05-04 07:57 | 49.59068 | 8.51614 | 14816 ft | 341 kts | 187° |
| 2026-05-04 07:58 | 49.56703 | 8.51304 | 15446 ft | 343 kts | 187° |
| 2026-05-04 07:58 | 49.54317 | 8.50989 | 16078 ft | 345 kts | 187° |
| 2026-05-04 07:58 | 49.51922 | 8.50673 | 16706 ft | 347 kts | 186° |
| 2026-05-04 07:58 | 49.49508 | 8.50357 | 17338 ft | 349 kts | 186° |
| 2026-05-04 07:59 | 49.47081 | 8.50043 | 17954 ft | 351 kts | 186° |
| 2026-05-04 07:59 | 49.44635 | 8.49728 | 18530 ft | 354 kts | 186° |
| 2026-05-04 07:59 | 49.42178 | 8.49407 | 19038 ft | 356 kts | 187° |
| 2026-05-04 07:59 | 49.40543 | 8.49191 | 19374 ft | 358 kts | 187° |
| 2026-05-04 08:00 | 49.37239 | 8.48759 | 20030 ft | 362 kts | 187° |
| 2026-05-04 08:00 | 49.34720 | 8.48433 | 20522 ft | 364 kts | 187° |
| 2026-05-04 08:00 | 49.32189 | 8.48106 | 21009 ft | 367 kts | 187° |
| 2026-05-04 08:02 | 49.14815 | 8.45840 | 23966 ft | 385 kts | 187° |
| 2026-05-04 08:02 | 49.12143 | 8.45495 | 24340 ft | 387 kts | 187° |
| 2026-05-04 08:02 | 49.09459 | 8.45148 | 24720 ft | 388 kts | 187° |
| 2026-05-04 08:03 | 49.06758 | 8.44773 | 25092 ft | 390 kts | 190° |
| 2026-05-04 08:03 | 49.04096 | 8.43959 | 25441 ft | 390 kts | 195° |
| 2026-05-04 08:03 | 49.01450 | 8.43029 | 25816 ft | 391 kts | 195° |
| 2026-05-04 08:03 | 48.98785 | 8.42097 | 26178 ft | 393 kts | 195° |
| 2026-05-04 08:04 | 48.96113 | 8.41168 | 26535 ft | 395 kts | 195° |
| 2026-05-04 08:04 | 48.93430 | 8.40236 | 26893 ft | 397 kts | 195° |
| 2026-05-04 08:04 | 48.90733 | 8.39297 | 27244 ft | 398 kts | 195° |
| 2026-05-04 08:04 | 48.88026 | 8.38357 | 27591 ft | 400 kts | 195° |
| 2026-05-04 08:05 | 48.85302 | 8.37414 | 27934 ft | 402 kts | 195° |
| 2026-05-04 08:05 | 48.82562 | 8.36471 | 28282 ft | 404 kts | 195° |
| 2026-05-04 08:05 | 48.79813 | 8.35524 | 28634 ft | 405 kts | 195° |
| 2026-05-04 08:05 | 48.77059 | 8.34567 | 28962 ft | 407 kts | 195° |
| 2026-05-04 08:06 | 48.74328 | 8.33584 | 29274 ft | 409 kts | 195° |
| 2026-05-04 08:06 | 48.71556 | 8.32564 | 29597 ft | 411 kts | 196° |
| 2026-05-04 08:06 | 48.68773 | 8.31534 | 29898 ft | 412 kts | 196° |
| 2026-05-04 08:06 | 48.65978 | 8.30501 | 30169 ft | 414 kts | 196° |
| 2026-05-04 08:08 | 48.46205 | 8.23306 | 32164 ft | 416 kts | 196° |
| 2026-05-04 08:08 | 48.43402 | 8.22289 | 32530 ft | 415 kts | 196° |
| 2026-05-04 08:10 | 48.21531 | 8.13164 | 34924 ft | 404 kts | 208° |
| 2026-05-04 08:11 | 48.19015 | 8.11294 | 35018 ft | 403 kts | 208° |
| 2026-05-04 08:11 | 48.11506 | 8.05739 | 35033 ft | 400 kts | 208° |
| 2026-05-04 08:12 | 48.06515 | 8.02062 | 35037 ft | 400 kts | 208° |
| 2026-05-04 08:12 | 48.01518 | 7.98379 | 35041 ft | 400 kts | 208° |
| 2026-05-04 08:13 | 47.96552 | 7.94730 | 35044 ft | 400 kts | 208° |
| 2026-05-04 08:13 | 47.91559 | 7.91071 | 35030 ft | 400 kts | 208° |
| 2026-05-04 08:14 | 47.86559 | 7.87418 | 35036 ft | 400 kts | 208° |
| 2026-05-04 08:16 | 47.66529 | 7.72866 | 35042 ft | 401 kts | 208° |
| 2026-05-04 08:16 | 47.61510 | 7.69235 | 35045 ft | 401 kts | 208° |
| 2026-05-04 08:17 | 47.56516 | 7.65635 | 35047 ft | 401 kts | 208° |
| 2026-05-04 08:17 | 47.51493 | 7.62026 | 35039 ft | 401 kts | 208° |
| 2026-05-04 08:19 | 47.31392 | 7.47646 | 35042 ft | 401 kts | 208° |
| 2026-05-04 08:20 | 47.26402 | 7.44092 | 35062 ft | 400 kts | 208° |
| 2026-05-04 08:20 | 47.21385 | 7.40517 | 35063 ft | 400 kts | 208° |
| 2026-05-04 08:21 | 47.16373 | 7.36958 | 35060 ft | 400 kts | 207° |
| 2026-05-04 08:21 | 47.11282 | 7.33504 | 35304 ft | 404 kts | 206° |
| 2026-05-04 08:22 | 47.08714 | 7.31826 | 35486 ft | 404 kts | 206° |
| 2026-05-04 08:22 | 47.06138 | 7.30154 | 35694 ft | 405 kts | 206° |
| 2026-05-04 08:24 | 46.88073 | 7.18317 | 36906 ft | 409 kts | 206° |
| 2026-05-04 08:24 | 46.85471 | 7.16614 | 37041 ft | 410 kts | 206° |
| 2026-05-04 08:24 | 46.80259 | 7.13217 | 37053 ft | 411 kts | 206° |
| 2026-05-04 08:25 | 46.75036 | 7.09810 | 37047 ft | 410 kts | 206° |
| 2026-05-04 08:25 | 46.69815 | 7.06411 | 37051 ft | 411 kts | 206° |
| 2026-05-04 08:27 | 46.48939 | 6.92866 | 37049 ft | 412 kts | 206° |
| 2026-05-04 08:28 | 46.43693 | 6.89496 | 37051 ft | 412 kts | 206° |
| 2026-05-04 08:28 | 46.38451 | 6.86135 | 37052 ft | 412 kts | 206° |
| 2026-05-04 08:29 | 46.33206 | 6.82773 | 37047 ft | 412 kts | 206° |
| 2026-05-04 08:31 | 46.12346 | 6.69452 | 37056 ft | 409 kts | 206° |
| 2026-05-04 08:33 | 45.91473 | 6.56257 | 37055 ft | 409 kts | 206° |
| 2026-05-04 08:35 | 45.70615 | 6.43165 | 37055 ft | 409 kts | 206° |
| 2026-05-04 08:35 | 45.65403 | 6.39911 | 37049 ft | 408 kts | 206° |
| 2026-05-04 08:37 | 45.47193 | 6.28583 | 37043 ft | 409 kts | 206° |
| 2026-05-04 08:38 | 45.41977 | 6.25363 | 37050 ft | 408 kts | 206° |
| 2026-05-04 08:38 | 45.36766 | 6.22145 | 37053 ft | 408 kts | 206° |
| 2026-05-04 08:40 | 45.16003 | 6.09384 | 37083 ft | 405 kts | 206° |
| 2026-05-04 08:41 | 45.10832 | 6.06224 | 37091 ft | 404 kts | 206° |
| 2026-05-04 08:41 | 45.05671 | 6.03071 | 37096 ft | 403 kts | 206° |
| 2026-05-04 08:42 | 45.00521 | 5.99935 | 37078 ft | 403 kts | 206° |
| 2026-05-04 08:42 | 44.95370 | 5.96803 | 37098 ft | 403 kts | 206° |
| 2026-05-04 08:43 | 44.90227 | 5.93687 | 37089 ft | 402 kts | 206° |
| 2026-05-04 08:43 | 44.85088 | 5.90579 | 37091 ft | 402 kts | 206° |
| 2026-05-04 08:44 | 44.79948 | 5.87463 | 37089 ft | 402 kts | 206° |
| 2026-05-04 08:46 | 44.59411 | 5.75123 | 37095 ft | 402 kts | 206° |
| 2026-05-04 08:46 | 44.54264 | 5.72048 | 37102 ft | 402 kts | 206° |
| 2026-05-04 08:47 | 44.49122 | 5.68967 | 37116 ft | 402 kts | 205° |
| 2026-05-04 08:47 | 44.43978 | 5.65903 | 37105 ft | 402 kts | 206° |
| 2026-05-04 08:48 | 44.38831 | 5.62842 | 37099 ft | 402 kts | 206° |
| 2026-05-04 08:48 | 44.33664 | 5.59881 | 37095 ft | 402 kts | 204° |
| 2026-05-04 08:49 | 44.28478 | 5.56967 | 37075 ft | 400 kts | 209° |
| 2026-05-04 08:50 | 44.12018 | 5.44998 | 37082 ft | 401 kts | 210° |
| 2026-05-04 08:51 | 44.07058 | 5.41419 | 37067 ft | 401 kts | 210° |
| 2026-05-04 08:51 | 44.02131 | 5.37872 | 37076 ft | 401 kts | 210° |
| 2026-05-04 08:52 | 43.97177 | 5.34315 | 37064 ft | 401 kts | 210° |
| 2026-05-04 08:52 | 43.92205 | 5.30777 | 37056 ft | 401 kts | 210° |
| 2026-05-04 08:54 | 43.72369 | 5.16744 | 37039 ft | 399 kts | 210° |
| 2026-05-04 08:55 | 43.67425 | 5.13249 | 37036 ft | 399 kts | 210° |
| 2026-05-04 08:55 | 43.62489 | 5.09780 | 37042 ft | 398 kts | 210° |
| 2026-05-04 09:01 | 43.11146 | 4.74049 | 37006 ft | 392 kts | 210° |
| 2026-05-04 09:01 | 43.06303 | 4.70715 | 37003 ft | 392 kts | 210° |
| 2026-05-04 09:02 | 43.01416 | 4.67358 | 37008 ft | 392 kts | 210° |
| 2026-05-04 09:02 | 42.96531 | 4.64006 | 37015 ft | 393 kts | 210° |
| 2026-05-04 09:03 | 42.91654 | 4.60661 | 37003 ft | 392 kts | 211° |
| 2026-05-04 09:03 | 42.86775 | 4.57317 | 37020 ft | 392 kts | 210° |
| 2026-05-04 09:04 | 42.81891 | 4.53982 | 37017 ft | 392 kts | 210° |
| 2026-05-04 09:04 | 42.77043 | 4.50686 | 37016 ft | 391 kts | 210° |
| 2026-05-04 09:05 | 42.72166 | 4.47368 | 37014 ft | 391 kts | 210° |
| 2026-05-04 09:05 | 42.67300 | 4.44058 | 37012 ft | 391 kts | 210° |
| 2026-05-04 09:06 | 42.62429 | 4.40753 | 37007 ft | 391 kts | 210° |
| 2026-05-04 09:08 | 42.42971 | 4.27624 | 37001 ft | 391 kts | 210° |
| 2026-05-04 09:08 | 42.38095 | 4.24349 | 36994 ft | 391 kts | 210° |
| 2026-05-04 09:09 | 42.33230 | 4.21074 | 36999 ft | 390 kts | 210° |
| 2026-05-04 09:09 | 42.28359 | 4.17814 | 37011 ft | 390 kts | 210° |
| 2026-05-04 09:10 | 42.23522 | 4.14599 | 37014 ft | 389 kts | 210° |
| 2026-05-04 09:10 | 42.18673 | 4.11366 | 37004 ft | 388 kts | 211° |
| 2026-05-04 09:11 | 42.13841 | 4.08107 | 36997 ft | 388 kts | 211° |
| 2026-05-04 09:11 | 42.09050 | 4.04796 | 36992 ft | 387 kts | 212° |
| 2026-05-04 09:12 | 42.04260 | 4.01490 | 36996 ft | 386 kts | 211° |
| 2026-05-04 09:14 | 41.85143 | 3.88485 | 36989 ft | 384 kts | 211° |
| 2026-05-04 09:14 | 41.80411 | 3.85305 | 36989 ft | 383 kts | 211° |
| 2026-05-04 09:15 | 41.75653 | 3.82114 | 36996 ft | 382 kts | 211° |
| 2026-05-04 09:15 | 41.70952 | 3.78974 | 36999 ft | 382 kts | 211° |
| 2026-05-04 09:17 | 41.49632 | 3.64750 | 36974 ft | 382 kts | 211° |
| 2026-05-04 09:18 | 41.44883 | 3.61596 | 36987 ft | 381 kts | 211° |
| 2026-05-04 09:18 | 41.40207 | 3.58494 | 36998 ft | 381 kts | 211° |
| 2026-05-04 09:19 | 41.35511 | 3.55393 | 37012 ft | 381 kts | 211° |
| 2026-05-04 09:19 | 41.30828 | 3.52304 | 36998 ft | 381 kts | 211° |
| 2026-05-04 09:20 | 41.26110 | 3.49195 | 36996 ft | 381 kts | 211° |
| 2026-05-04 09:20 | 41.21447 | 3.46118 | 36997 ft | 381 kts | 211° |
| 2026-05-04 09:21 | 41.16472 | 3.43601 | 36998 ft | 391 kts | 198° |
| 2026-05-04 09:21 | 41.11152 | 3.42205 | 37000 ft | 391 kts | 198° |
| 2026-05-04 09:22 | 41.05776 | 3.40791 | 36972 ft | 391 kts | 198° |
| 2026-05-04 09:22 | 41.00432 | 3.39382 | 36984 ft | 391 kts | 198° |
| 2026-05-04 09:23 | 40.95089 | 3.37981 | 36985 ft | 392 kts | 198° |
| 2026-05-04 09:23 | 40.89771 | 3.36584 | 36990 ft | 392 kts | 198° |
| 2026-05-04 09:25 | 40.68464 | 3.31000 | 36990 ft | 392 kts | 198° |
| 2026-05-04 09:26 | 40.63114 | 3.29601 | 36993 ft | 392 kts | 198° |
| 2026-05-04 09:26 | 40.57772 | 3.28211 | 36996 ft | 392 kts | 198° |
| 2026-05-04 09:27 | 40.52423 | 3.26820 | 37000 ft | 392 kts | 198° |
| 2026-05-04 09:27 | 40.47075 | 3.25432 | 36997 ft | 392 kts | 198° |
| 2026-05-04 09:28 | 40.41722 | 3.24053 | 36971 ft | 392 kts | 198° |
| 2026-05-04 09:28 | 40.36368 | 3.22671 | 36979 ft | 392 kts | 198° |
| 2026-05-04 09:29 | 40.31016 | 3.21284 | 36985 ft | 392 kts | 198° |
| 2026-05-04 09:29 | 40.25662 | 3.19905 | 36989 ft | 392 kts | 198° |
| 2026-05-04 09:30 | 40.20343 | 3.18532 | 36958 ft | 392 kts | 198° |
| 2026-05-04 09:30 | 40.14988 | 3.17147 | 36974 ft | 393 kts | 198° |
| 2026-05-04 09:31 | 40.09624 | 3.15770 | 36979 ft | 393 kts | 198° |
| 2026-05-04 09:31 | 40.06925 | 3.15077 | 36810 ft | 396 kts | 198° |
| 2026-05-04 09:31 | 40.04230 | 3.14388 | 36417 ft | 395 kts | 198° |
| 2026-05-04 09:32 | 40.01535 | 3.13702 | 36032 ft | 394 kts | 198° |
| 2026-05-04 09:32 | 39.98841 | 3.13016 | 35653 ft | 393 kts | 198° |
| 2026-05-04 09:34 | 39.82088 | 3.03695 | 32599 ft | 361 kts | 213° |
| 2026-05-04 09:34 | 39.79907 | 3.02112 | 32082 ft | 358 kts | 213° |
| 2026-05-04 09:34 | 39.77738 | 3.00535 | 31573 ft | 355 kts | 213° |
| 2026-05-04 09:34 | 39.75590 | 2.98972 | 31050 ft | 351 kts | 213° |
| 2026-05-04 09:35 | 39.73495 | 2.97450 | 30573 ft | 348 kts | 213° |
| 2026-05-04 09:35 | 39.71386 | 2.95917 | 30077 ft | 346 kts | 212° |
| 2026-05-04 09:35 | 39.69296 | 2.94404 | 29554 ft | 342 kts | 212° |
| 2026-05-04 09:35 | 39.67228 | 2.92912 | 29073 ft | 337 kts | 213° |
| 2026-05-04 09:37 | 39.53528 | 2.83040 | 26081 ft | 308 kts | 214° |
| 2026-05-04 09:37 | 39.51662 | 2.81698 | 25704 ft | 306 kts | 214° |
| 2026-05-04 09:38 | 39.49814 | 2.80368 | 25303 ft | 303 kts | 214° |
| 2026-05-04 09:38 | 39.47975 | 2.79048 | 24902 ft | 301 kts | 214° |
| 2026-05-04 09:38 | 39.46760 | 2.78174 | 24634 ft | 300 kts | 214° |
| 2026-05-04 09:38 | 39.44997 | 2.76764 | 24233 ft | 296 kts | 221° |
| 2026-05-04 09:39 | 39.43507 | 2.74966 | 23821 ft | 292 kts | 232° |
| 2026-05-04 09:39 | 39.42329 | 2.72820 | 23369 ft | 292 kts | 241° |
| 2026-05-04 09:39 | 39.41403 | 2.70502 | 22925 ft | 289 kts | 243° |
| 2026-05-04 09:39 | 39.40193 | 2.67462 | 22366 ft | 285 kts | 243° |
| 2026-05-04 09:40 | 39.39580 | 2.65925 | 22098 ft | 284 kts | 243° |
| 2026-05-04 09:40 | 39.38672 | 2.63652 | 21679 ft | 283 kts | 243° |
| 2026-05-04 09:40 | 39.37771 | 2.61398 | 21269 ft | 282 kts | 243° |
| 2026-05-04 09:40 | 39.36870 | 2.59136 | 20867 ft | 281 kts | 243° |
| 2026-05-04 09:41 | 39.35985 | 2.56915 | 20470 ft | 281 kts | 243° |
| 2026-05-04 09:42 | 39.29718 | 2.41284 | 17647 ft | 279 kts | 244° |
| 2026-05-04 09:43 | 39.28822 | 2.39058 | 17256 ft | 278 kts | 243° |
| 2026-05-04 09:43 | 39.27933 | 2.36850 | 16877 ft | 277 kts | 243° |
| 2026-05-04 09:43 | 39.27045 | 2.34645 | 16497 ft | 277 kts | 243° |
| 2026-05-04 09:43 | 39.26155 | 2.32431 | 16105 ft | 277 kts | 243° |
| 2026-05-04 09:44 | 39.25266 | 2.30220 | 15737 ft | 278 kts | 243° |
| 2026-05-04 09:44 | 39.24374 | 2.28009 | 15368 ft | 278 kts | 243° |
| 2026-05-04 09:44 | 39.23479 | 2.25793 | 14983 ft | 279 kts | 243° |
| 2026-05-04 09:46 | 39.17136 | 2.10126 | 12261 ft | 282 kts | 242° |
| 2026-05-04 09:46 | 39.16221 | 2.07878 | 11868 ft | 282 kts | 242° |
| 2026-05-04 09:46 | 39.15315 | 2.05648 | 11478 ft | 282 kts | 242° |
| 2026-05-04 09:47 | 39.14409 | 2.03416 | 11089 ft | 281 kts | 242° |
| 2026-05-04 09:47 | 39.13499 | 2.01178 | 10694 ft | 281 kts | 242° |
| 2026-05-04 09:49 | 39.07313 | 1.86020 | 8262 ft | 268 kts | 242° |
| 2026-05-04 09:49 | 39.06443 | 1.83895 | 7868 ft | 267 kts | 241° |
| 2026-05-04 09:49 | 39.05572 | 1.81765 | 7260 ft | 273 kts | 242° |
| 2026-05-04 09:51 | 39.00455 | 1.69319 | 5212 ft | 251 kts | 241° |
| 2026-05-04 09:51 | 38.99651 | 1.67352 | 4879 ft | 246 kts | 242° |
| 2026-05-04 09:51 | 38.98858 | 1.65417 | 4562 ft | 243 kts | 241° |
| 2026-05-04 09:51 | 38.98088 | 1.63538 | 4235 ft | 240 kts | 241° |
| 2026-05-04 09:52 | 38.97313 | 1.61651 | 3918 ft | 238 kts | 241° |
| 2026-05-04 09:52 | 38.96546 | 1.59783 | 3604 ft | 234 kts | 241° |
| 2026-05-04 09:52 | 38.95792 | 1.57948 | 3298 ft | 227 kts | 241° |
| 2026-05-04 09:52 | 38.95076 | 1.56206 | 3014 ft | 215 kts | 241° |
| 2026-05-04 09:53 | 38.94391 | 1.54540 | 2730 ft | 206 kts | 241° |
| 2026-05-04 09:53 | 38.93737 | 1.52960 | 2419 ft | 194 kts | 240° |
| 2026-05-04 09:53 | 38.93119 | 1.51475 | 2257 ft | 183 kts | 240° |
| 2026-05-04 09:53 | 38.92534 | 1.50055 | 1992 ft | 177 kts | 242° |
| 2026-05-04 09:54 | 38.91983 | 1.48686 | 1774 ft | 165 kts | 241° |
| 2026-05-04 09:54 | 38.91482 | 1.47434 | 1557 ft | 152 kts | 241° |
| 2026-05-04 09:54 | 38.90994 | 1.46259 | 1345 ft | 145 kts | 241° |
| 2026-05-04 09:54 | 38.90527 | 1.45120 | 1085 ft | 146 kts | 240° |
| 2026-05-04 09:55 | 38.90059 | 1.44015 | 922 ft | 139 kts | 240° |
| 2026-05-04 09:55 | 38.89607 | 1.42891 | 758 ft | 144 kts | 242° |
| 2026-05-04 09:55 | 38.89139 | 1.41763 | 572 ft | 142 kts | 240° |
| 2026-05-04 09:55 | 38.88655 | 1.40619 | 381 ft | 149 kts | 242° |
| 2026-05-04 09:56 | 38.88170 | 1.39456 | 181 ft | 146 kts | 241° |
| 2026-05-04 09:56 | 38.87704 | 1.38329 | 16 ft | 136 kts | 241° |
| 2026-05-04 09:56 | 38.87334 | 1.37435 | 11 ft | 89 kts | 242° |
| 2026-05-04 09:56 | 38.87123 | 1.36924 | 10 ft | 33 kts | 245° |
| 2026-05-04 09:57 | 38.87102 | 1.36704 | 8 ft | 22 kts | 269° |
| 2026-05-04 09:57 | 38.87117 | 1.36591 | 9 ft | 9 kts | 312° |
| 2026-05-04 09:57 | 38.87169 | 1.36586 | 11 ft | 7 kts | 24° |
| 2026-05-04 09:57 | 38.87192 | 1.36631 | 8 ft | 6 kts | 65° |
| 2026-05-04 09:58 | 38.87209 | 1.36674 | 9 ft | 7 kts | 63° |
| 2026-05-04 09:58 | 38.87234 | 1.36737 | 9 ft | 7 kts | 63° |
| 2026-05-04 09:58 | 38.87263 | 1.36808 | 9 ft | 12 kts | 62° |
| 2026-05-04 10:00 | 38.87516 | 1.37139 | 8 ft | 0 kts | 332° |